createdAt,value
2022-08-26T00:00:18.759Z,1009.11
2022-08-26T00:01:18.729Z,1009.14
2022-08-26T00:02:20.699Z,1009.15
2022-08-26T00:03:18.690Z,1009.14
2022-08-26T00:04:18.758Z,1009.15
2022-08-26T00:05:18.701Z,1009.11
2022-08-26T00:06:20.797Z,1009.12
2022-08-26T00:07:18.643Z,1009.11
2022-08-26T00:08:18.652Z,1009.11
2022-08-26T00:09:18.637Z,1009.13
2022-08-26T00:10:18.637Z,1009.15
2022-08-26T00:11:26.802Z,1009.17
2022-08-26T00:12:20.545Z,1009.17
2022-08-26T00:13:19.722Z,1009.18
2022-08-26T00:14:18.573Z,1009.18
2022-08-26T00:15:18.560Z,1009.19
2022-08-26T00:16:18.587Z,1009.14
2022-08-26T00:17:18.571Z,1009.17
2022-08-26T00:18:22.168Z,1009.16
2022-08-26T00:19:18.518Z,1009.17
2022-08-26T00:20:18.506Z,1009.19
2022-08-26T00:21:18.510Z,1009.21
2022-08-26T00:22:20.227Z,1009.18
2022-08-26T00:23:18.487Z,1009.18
2022-08-26T00:24:18.464Z,1009.23
2022-08-26T00:25:18.459Z,1009.19
2022-08-26T00:26:18.428Z,1009.17
2022-08-26T00:27:18.453Z,1009.20
2022-08-26T00:28:18.988Z,1009.17
2022-08-26T00:29:18.401Z,1009.16
2022-08-26T00:30:22.841Z,1009.22
2022-08-26T00:31:19.461Z,1009.25
2022-08-26T00:32:18.399Z,1009.25
2022-08-26T00:33:18.389Z,1009.24
2022-08-26T00:34:19.283Z,1009.23
2022-08-26T00:35:18.336Z,1009.23
2022-08-26T00:36:19.921Z,1009.23
2022-08-26T00:37:18.324Z,1009.23
2022-08-26T00:38:18.322Z,1009.27
2022-08-26T00:39:18.322Z,1009.27
2022-08-26T00:40:18.413Z,1009.25
2022-08-26T00:41:18.275Z,1009.28
2022-08-26T00:42:18.285Z,1009.32
2022-08-26T00:43:18.253Z,1009.29
2022-08-26T00:44:18.274Z,1009.33
2022-08-26T00:45:18.255Z,1009.28
2022-08-26T00:46:18.243Z,1009.32
2022-08-26T00:47:18.235Z,1009.28
2022-08-26T00:48:18.184Z,1009.25
2022-08-26T00:49:18.199Z,1009.27
2022-08-26T00:50:18.201Z,1009.30
2022-08-26T00:51:18.172Z,1009.27
2022-08-26T00:52:18.159Z,1009.27
2022-08-26T00:53:18.139Z,1009.29
2022-08-26T00:54:18.139Z,1009.31
2022-08-26T00:55:20.385Z,1009.34
2022-08-26T00:56:18.145Z,1009.38
2022-08-26T00:57:18.103Z,1009.43
2022-08-26T00:58:18.079Z,1009.41
2022-08-26T00:59:18.093Z,1009.43
2022-08-26T01:00:18.062Z,1009.46
2022-08-26T01:01:18.074Z,1009.46
2022-08-26T01:02:21.280Z,1009.45
2022-08-26T01:03:18.030Z,1009.41
2022-08-26T01:04:18.030Z,1009.51
2022-08-26T01:05:18.037Z,1009.52
2022-08-26T01:06:18.023Z,1009.47
2022-08-26T01:07:18.026Z,1009.49
2022-08-26T01:08:17.983Z,1009.46
2022-08-26T01:09:17.984Z,1009.41
2022-08-26T01:10:17.968Z,1009.41
2022-08-26T01:11:17.963Z,1009.49
2022-08-26T01:12:21.945Z,1009.49
2022-08-26T01:13:17.944Z,1009.51
2022-08-26T01:14:17.902Z,1009.58
2022-08-26T01:15:17.938Z,1009.55
2022-08-26T01:16:17.959Z,1009.58
2022-08-26T01:17:17.876Z,1009.59
2022-08-26T01:18:17.865Z,1009.61
2022-08-26T01:19:17.977Z,1009.59
2022-08-26T01:20:18.799Z,1009.62
2022-08-26T01:21:17.827Z,1009.63
2022-08-26T01:22:17.827Z,1009.58
2022-08-26T01:23:17.813Z,1009.61
2022-08-26T01:24:17.819Z,1009.61
2022-08-26T01:25:17.782Z,1009.60
2022-08-26T01:26:20.008Z,1009.60
2022-08-26T01:27:17.774Z,1009.55
2022-08-26T01:28:17.748Z,1009.52
2022-08-26T01:29:17.790Z,1009.51
2022-08-26T01:30:17.738Z,1009.49
2022-08-26T01:31:17.757Z,1009.50
2022-08-26T01:32:17.716Z,1009.54
2022-08-26T01:33:17.754Z,1009.61
2022-08-26T01:34:17.712Z,1009.52
2022-08-26T01:35:17.681Z,1009.53
2022-08-26T01:36:17.676Z,1009.58
2022-08-26T01:37:17.682Z,1009.57
2022-08-26T01:38:17.655Z,1009.63
2022-08-26T01:39:17.624Z,1009.61
2022-08-26T01:40:17.692Z,1009.64
2022-08-26T01:41:19.935Z,1009.65
2022-08-26T01:42:18.641Z,1009.68
2022-08-26T01:43:17.604Z,1009.69
2022-08-26T01:44:17.576Z,1009.70
2022-08-26T01:45:17.568Z,1009.75
2022-08-26T01:46:17.569Z,1009.71
2022-08-26T01:47:17.545Z,1009.67
2022-08-26T01:48:17.567Z,1009.65
2022-08-26T01:49:17.507Z,1009.66
2022-08-26T01:50:18.092Z,1009.66
2022-08-26T01:51:18.504Z,1009.72
2022-08-26T01:52:17.509Z,1009.73
2022-08-26T01:53:17.488Z,1009.75
2022-08-26T01:54:17.464Z,1009.78
2022-08-26T01:55:32.248Z,1009.79
2022-08-26T01:56:18.450Z,1009.86
2022-08-26T01:57:17.420Z,1009.81
2022-08-26T01:58:17.412Z,1009.82
2022-08-26T01:59:17.410Z,1009.82
2022-08-26T02:00:17.414Z,1009.83
2022-08-26T02:01:17.480Z,1009.90
2022-08-26T02:02:17.403Z,1009.90
2022-08-26T02:03:17.460Z,1009.85
2022-08-26T02:04:17.414Z,1009.88
2022-08-26T02:05:17.341Z,1009.87
2022-08-26T02:06:17.323Z,1009.85
2022-08-26T02:07:17.353Z,1009.84
2022-08-26T02:08:17.309Z,1009.90
2022-08-26T02:09:18.294Z,1009.88
2022-08-26T02:10:17.279Z,1009.87
2022-08-26T02:11:18.313Z,1009.84
2022-08-26T02:12:17.260Z,1009.85
2022-08-26T02:13:17.280Z,1009.90
2022-08-26T02:14:17.246Z,1009.88
2022-08-26T02:15:17.319Z,1009.91
2022-08-26T02:16:17.296Z,1009.91
2022-08-26T02:17:17.215Z,1009.92
2022-08-26T02:18:17.209Z,1009.91
2022-08-26T02:19:17.461Z,1009.97
2022-08-26T02:20:17.191Z,1009.95
2022-08-26T02:21:17.167Z,1009.99
2022-08-26T02:22:17.169Z,1009.97
2022-08-26T02:23:17.140Z,1010.03
2022-08-26T02:24:17.133Z,1010.02
2022-08-26T02:25:17.152Z,1010.07
2022-08-26T02:26:17.922Z,1010.08
2022-08-26T02:27:17.101Z,1010.13
2022-08-26T02:28:17.089Z,1010.09
2022-08-26T02:29:17.095Z,1010.14
2022-08-26T02:30:17.349Z,1010.16
2022-08-26T02:31:17.124Z,1010.12
2022-08-26T02:32:18.550Z,1010.19
2022-08-26T02:33:17.067Z,1010.17
2022-08-26T02:34:17.049Z,1010.15
2022-08-26T02:35:18.304Z,1010.14
2022-08-26T02:36:17.029Z,1010.13
2022-08-26T02:37:17.669Z,1010.12
2022-08-26T02:38:16.975Z,1010.16
2022-08-26T02:39:22.023Z,1010.11
2022-08-26T02:40:18.037Z,1010.17
2022-08-26T02:41:16.948Z,1010.17
2022-08-26T02:42:16.961Z,1010.09
2022-08-26T02:43:16.976Z,1010.06
2022-08-26T02:44:16.934Z,1010.12
2022-08-26T02:45:16.923Z,1010.09
2022-08-26T02:46:21.486Z,1010.13
2022-08-26T02:47:17.943Z,1010.14
2022-08-26T02:48:16.889Z,1010.11
2022-08-26T02:49:16.981Z,1010.14
2022-08-26T02:50:16.844Z,1010.11
2022-08-26T02:51:16.844Z,1010.08
2022-08-26T02:52:16.827Z,1010.10
2022-08-26T02:53:17.030Z,1010.10
2022-08-26T02:54:17.809Z,1010.18
2022-08-26T02:55:16.790Z,1010.17
2022-08-26T02:56:16.786Z,1010.12
2022-08-26T02:57:16.774Z,1010.09
2022-08-26T02:58:16.780Z,1010.08
2022-08-26T02:59:16.796Z,1010.13
2022-08-26T03:00:16.738Z,1010.09
2022-08-26T03:01:16.790Z,1010.10
2022-08-26T03:02:16.808Z,1010.11
2022-08-26T03:03:16.726Z,1010.07
2022-08-26T03:04:16.690Z,1010.08
2022-08-26T03:05:16.708Z,1010.10
2022-08-26T03:06:16.687Z,1010.10
2022-08-26T03:07:16.686Z,1010.13
2022-08-26T03:08:16.655Z,1010.12
2022-08-26T03:09:18.837Z,1010.09
2022-08-26T03:10:16.673Z,1010.11
2022-08-26T03:11:16.619Z,1010.08
2022-08-26T03:12:16.646Z,1010.10
2022-08-26T03:13:16.596Z,1010.09
2022-08-26T03:14:16.586Z,1010.13
2022-08-26T03:15:17.956Z,1010.07
2022-08-26T03:16:16.628Z,1010.01
2022-08-26T03:17:16.561Z,1010.05
2022-08-26T03:18:16.578Z,1010.02
2022-08-26T03:19:17.711Z,1010.05
2022-08-26T03:20:17.294Z,1010.02
2022-08-26T03:21:16.530Z,1010.05
2022-08-26T03:22:16.512Z,1010.07
2022-08-26T03:23:16.490Z,1010.07
2022-08-26T03:24:16.500Z,1010.04
2022-08-26T03:25:16.471Z,1010.07
2022-08-26T03:26:16.450Z,1010.08
2022-08-26T03:27:16.546Z,1010.06
2022-08-26T03:28:16.439Z,1010.08
2022-08-26T03:29:16.653Z,1010.11
2022-08-26T03:30:16.439Z,1010.10
2022-08-26T03:31:16.470Z,1010.06
2022-08-26T03:32:16.395Z,1010.10
2022-08-26T03:33:16.384Z,1010.08
2022-08-26T03:34:16.365Z,1010.10
2022-08-26T03:35:16.390Z,1010.10
2022-08-26T03:36:16.385Z,1010.14
2022-08-26T03:37:16.335Z,1010.13
2022-08-26T03:38:16.346Z,1010.14
2022-08-26T03:39:16.325Z,1010.14
2022-08-26T03:40:16.421Z,1010.17
2022-08-26T03:41:16.296Z,1010.22
2022-08-26T03:42:16.281Z,1010.24
2022-08-26T03:43:16.329Z,1010.23
2022-08-26T03:44:16.264Z,1010.22
2022-08-26T03:45:16.256Z,1010.23
2022-08-26T03:46:16.298Z,1010.21
2022-08-26T03:47:16.246Z,1010.17
2022-08-26T03:48:16.229Z,1010.18
2022-08-26T03:49:16.241Z,1010.21
2022-08-26T03:50:16.198Z,1010.23
2022-08-26T03:51:18.007Z,1010.20
2022-08-26T03:52:16.161Z,1010.21
2022-08-26T03:53:16.204Z,1010.25
2022-08-26T03:54:16.179Z,1010.20
2022-08-26T03:55:16.163Z,1010.19
2022-08-26T03:56:16.143Z,1010.23
2022-08-26T03:57:16.765Z,1010.21
2022-08-26T03:58:16.112Z,1010.19
2022-08-26T03:59:16.104Z,1010.20
2022-08-26T04:00:18.371Z,1010.19
2022-08-26T04:01:16.340Z,1010.17
2022-08-26T04:02:16.073Z,1010.21
2022-08-26T04:03:18.907Z,1010.19
2022-08-26T04:04:16.033Z,1010.23
2022-08-26T04:05:16.029Z,1010.24
2022-08-26T04:06:16.016Z,1010.28
2022-08-26T04:07:16.025Z,1010.28
2022-08-26T04:08:15.996Z,1010.29
2022-08-26T04:09:16.000Z,1010.32
2022-08-26T04:10:15.965Z,1010.30
2022-08-26T04:11:15.962Z,1010.28
2022-08-26T04:12:16.008Z,1010.31
2022-08-26T04:13:15.939Z,1010.34
2022-08-26T04:14:17.630Z,1010.32
2022-08-26T04:15:15.928Z,1010.35
2022-08-26T04:16:15.959Z,1010.35
2022-08-26T04:17:15.909Z,1010.34
2022-08-26T04:18:15.931Z,1010.30
2022-08-26T04:19:15.877Z,1010.34
2022-08-26T04:20:16.263Z,1010.33
2022-08-26T04:21:15.877Z,1010.34
2022-08-26T04:22:15.840Z,1010.33
2022-08-26T04:23:16.831Z,1010.41
2022-08-26T04:24:15.854Z,1010.35
2022-08-26T04:25:15.812Z,1010.37
2022-08-26T04:26:15.795Z,1010.30
2022-08-26T04:27:15.995Z,1010.35
2022-08-26T04:28:15.774Z,1010.32
2022-08-26T04:29:15.794Z,1010.30
2022-08-26T04:30:15.787Z,1010.27
2022-08-26T04:31:15.819Z,1010.28
2022-08-26T04:32:15.754Z,1010.29
2022-08-26T04:33:15.754Z,1010.33
2022-08-26T04:34:15.711Z,1010.30
2022-08-26T04:35:15.715Z,1010.31
2022-08-26T04:36:15.690Z,1010.31
2022-08-26T04:37:15.716Z,1010.29
2022-08-26T04:38:15.672Z,1010.35
2022-08-26T04:39:15.659Z,1010.28
2022-08-26T04:40:15.734Z,1010.33
2022-08-26T04:41:17.100Z,1010.33
2022-08-26T04:42:18.862Z,1010.34
2022-08-26T04:43:16.623Z,1010.35
2022-08-26T04:44:15.601Z,1010.35
2022-08-26T04:45:15.610Z,1010.32
2022-08-26T04:46:15.663Z,1010.38
2022-08-26T04:47:15.579Z,1010.35
2022-08-26T04:48:16.933Z,1010.36
2022-08-26T04:49:15.553Z,1010.33
2022-08-26T04:50:15.586Z,1010.38
2022-08-26T04:51:15.555Z,1010.36
2022-08-26T04:52:15.544Z,1010.37
2022-08-26T04:53:15.519Z,1010.37
2022-08-26T04:54:16.398Z,1010.37
2022-08-26T04:55:15.539Z,1010.40
2022-08-26T04:56:15.508Z,1010.39
2022-08-26T04:57:15.518Z,1010.43
2022-08-26T04:58:15.527Z,1010.39
2022-08-26T04:59:17.116Z,1010.48
2022-08-26T05:00:15.477Z,1010.47
2022-08-26T05:01:15.486Z,1010.50
2022-08-26T05:02:15.414Z,1010.49
2022-08-26T05:03:15.395Z,1010.53
2022-08-26T05:04:16.290Z,1010.54
2022-08-26T05:05:15.415Z,1010.55
2022-08-26T05:06:15.395Z,1010.55
2022-08-26T05:07:15.363Z,1010.58
2022-08-26T05:08:15.361Z,1010.54
2022-08-26T05:09:15.506Z,1010.53
2022-08-26T05:10:15.339Z,1010.54
2022-08-26T05:11:15.332Z,1010.51
2022-08-26T05:12:15.331Z,1010.57
2022-08-26T05:13:15.824Z,1010.51
2022-08-26T05:14:15.293Z,1010.54
2022-08-26T05:15:15.264Z,1010.49
2022-08-26T05:16:15.280Z,1010.51
2022-08-26T05:17:15.305Z,1010.56
2022-08-26T05:18:15.242Z,1010.57
2022-08-26T05:19:15.265Z,1010.54
2022-08-26T05:20:15.243Z,1010.54
2022-08-26T05:21:15.266Z,1010.53
2022-08-26T05:22:15.186Z,1010.56
2022-08-26T05:23:15.245Z,1010.53
2022-08-26T05:24:15.190Z,1010.52
2022-08-26T05:25:36.157Z,1010.47
2022-08-26T05:26:15.205Z,1010.50
2022-08-26T05:27:15.175Z,1010.50
2022-08-26T05:28:15.163Z,1010.50
2022-08-26T05:29:15.166Z,1010.50
2022-08-26T05:30:15.107Z,1010.53
2022-08-26T05:31:15.214Z,1010.50
2022-08-26T05:32:15.097Z,1010.51
2022-08-26T05:33:15.139Z,1010.52
2022-08-26T05:34:15.099Z,1010.49
2022-08-26T05:35:15.072Z,1010.53
2022-08-26T05:36:15.044Z,1010.52
2022-08-26T05:37:15.081Z,1010.51
2022-08-26T05:38:15.060Z,1010.56
2022-08-26T05:39:15.021Z,1010.55
2022-08-26T05:40:15.096Z,1010.58
2022-08-26T05:41:14.999Z,1010.57
2022-08-26T05:42:14.990Z,1010.60
2022-08-26T05:43:15.015Z,1010.61
2022-08-26T05:44:14.960Z,1010.58
2022-08-26T05:45:14.939Z,1010.60
2022-08-26T05:46:14.972Z,1010.61
2022-08-26T05:47:14.929Z,1010.64
2022-08-26T05:48:14.930Z,1010.66
2022-08-26T05:49:14.914Z,1010.63
2022-08-26T05:50:14.911Z,1010.57
2022-08-26T05:51:14.875Z,1010.58
2022-08-26T05:52:14.882Z,1010.60
2022-08-26T05:53:14.886Z,1010.60
2022-08-26T05:54:14.906Z,1010.57
2022-08-26T05:55:15.847Z,1010.60
2022-08-26T05:56:14.833Z,1010.58
2022-08-26T05:57:14.805Z,1010.61
2022-08-26T05:58:14.825Z,1010.60
2022-08-26T05:59:14.798Z,1010.62
2022-08-26T06:00:14.810Z,1010.65
2022-08-26T06:01:14.817Z,1010.63
2022-08-26T06:02:14.797Z,1010.65
2022-08-26T06:03:14.811Z,1010.62
2022-08-26T06:04:14.747Z,1010.61
2022-08-26T06:05:14.748Z,1010.63
2022-08-26T06:06:14.707Z,1010.64
2022-08-26T06:07:14.710Z,1010.64
2022-08-26T06:08:14.692Z,1010.61
2022-08-26T06:09:14.701Z,1010.68
2022-08-26T06:10:31.575Z,1010.67
2022-08-26T06:11:18.616Z,1010.65
2022-08-26T06:12:14.648Z,1010.69
2022-08-26T06:13:14.655Z,1010.67
2022-08-26T06:14:14.639Z,1010.68
2022-08-26T06:15:14.613Z,1010.73
2022-08-26T06:16:14.812Z,1010.70
2022-08-26T06:17:14.606Z,1010.68
2022-08-26T06:18:14.590Z,1010.64
2022-08-26T06:19:14.573Z,1010.67
2022-08-26T06:20:14.564Z,1010.72
2022-08-26T06:21:14.586Z,1010.72
2022-08-26T06:22:14.545Z,1010.78
2022-08-26T06:23:14.525Z,1010.75
2022-08-26T06:24:14.542Z,1010.81
2022-08-26T06:25:14.531Z,1010.80
2022-08-26T06:26:14.507Z,1010.79
2022-08-26T06:27:15.330Z,1010.81
2022-08-26T06:28:14.483Z,1010.79
2022-08-26T06:29:16.405Z,1010.82
2022-08-26T06:30:15.455Z,1010.80
2022-08-26T06:31:14.492Z,1010.83
2022-08-26T06:32:14.444Z,1010.85
2022-08-26T06:33:14.436Z,1010.82
2022-08-26T06:34:14.413Z,1010.84
2022-08-26T06:35:14.417Z,1010.93
2022-08-26T06:36:14.388Z,1010.81
2022-08-26T06:37:14.394Z,1010.90
2022-08-26T06:38:14.378Z,1010.84
2022-08-26T06:39:14.365Z,1010.86
2022-08-26T06:40:14.414Z,1010.86
2022-08-26T06:41:14.331Z,1010.84
2022-08-26T06:42:14.370Z,1010.86
2022-08-26T06:43:14.310Z,1010.85
2022-08-26T06:44:14.299Z,1010.85
2022-08-26T06:45:14.286Z,1010.86
2022-08-26T06:46:14.318Z,1010.88
2022-08-26T06:47:14.283Z,1010.93
2022-08-26T06:48:14.250Z,1010.88
2022-08-26T06:49:14.241Z,1010.91
2022-08-26T06:50:14.246Z,1010.91
2022-08-26T06:51:14.214Z,1010.91
2022-08-26T06:52:14.240Z,1010.93
2022-08-26T06:53:15.192Z,1010.94
2022-08-26T06:54:14.182Z,1010.88
2022-08-26T06:55:14.195Z,1010.91
2022-08-26T06:56:14.192Z,1010.94
2022-08-26T06:57:14.231Z,1010.90
2022-08-26T06:58:14.149Z,1010.91
2022-08-26T06:59:14.128Z,1010.92
2022-08-26T07:00:14.150Z,1010.91
2022-08-26T07:01:14.135Z,1010.90
2022-08-26T07:02:14.144Z,1010.93
2022-08-26T07:03:14.157Z,1010.92
2022-08-26T07:04:14.101Z,1010.89
2022-08-26T07:05:14.064Z,1010.92
2022-08-26T07:06:14.076Z,1010.91
2022-08-26T07:07:14.038Z,1010.93
2022-08-26T07:08:14.036Z,1010.94
2022-08-26T07:09:14.025Z,1010.94
2022-08-26T07:10:14.043Z,1010.97
2022-08-26T07:11:14.004Z,1010.91
2022-08-26T07:12:14.003Z,1010.94
2022-08-26T07:13:13.993Z,1010.96
2022-08-26T07:14:13.980Z,1010.96
2022-08-26T07:15:13.957Z,1010.99
2022-08-26T07:16:13.990Z,1010.99
2022-08-26T07:17:14.054Z,1010.97
2022-08-26T07:18:13.947Z,1011.01
2022-08-26T07:19:13.907Z,1011.00
2022-08-26T07:20:13.936Z,1011.00
2022-08-26T07:21:13.886Z,1011.01
2022-08-26T07:22:13.908Z,1011.02
2022-08-26T07:23:13.866Z,1011.04
2022-08-26T07:24:13.857Z,1011.05
2022-08-26T07:25:13.845Z,1011.04
2022-08-26T07:26:13.834Z,1011.02
2022-08-26T07:27:13.839Z,1011.00
2022-08-26T07:28:13.805Z,1011.02
2022-08-26T07:29:13.788Z,1011.01
2022-08-26T07:30:14.802Z,1010.98
2022-08-26T07:31:13.815Z,1010.98
2022-08-26T07:32:13.799Z,1011.01
2022-08-26T07:33:13.746Z,1011.08
2022-08-26T07:34:13.755Z,1011.10
2022-08-26T07:35:13.725Z,1011.09
2022-08-26T07:36:13.728Z,1011.13
2022-08-26T07:37:13.698Z,1011.07
2022-08-26T07:38:13.753Z,1011.07
2022-08-26T07:39:13.685Z,1011.16
2022-08-26T07:40:13.724Z,1011.12
2022-08-26T07:41:13.686Z,1011.07
2022-08-26T07:42:13.690Z,1011.14
2022-08-26T07:43:13.671Z,1011.19
2022-08-26T07:44:13.650Z,1011.16
2022-08-26T07:45:13.623Z,1011.20
2022-08-26T07:46:16.470Z,1011.21
2022-08-26T07:47:25.287Z,1011.20
2022-08-26T07:48:14.597Z,1011.18
2022-08-26T07:49:13.627Z,1011.17
2022-08-26T07:50:13.584Z,1011.30
2022-08-26T07:51:13.579Z,1011.20
2022-08-26T07:52:13.561Z,1011.20
2022-08-26T07:53:13.565Z,1011.23
2022-08-26T07:54:13.535Z,1011.22
2022-08-26T07:55:13.575Z,1011.23
2022-08-26T07:56:13.514Z,1011.23
2022-08-26T07:57:13.511Z,1011.22
2022-08-26T07:58:13.483Z,1011.22
2022-08-26T07:59:14.001Z,1011.21
2022-08-26T08:00:13.458Z,1011.22
2022-08-26T08:01:13.538Z,1011.22
2022-08-26T08:02:13.473Z,1011.25
2022-08-26T08:03:13.438Z,1011.30
2022-08-26T08:04:13.419Z,1011.30
2022-08-26T08:05:13.469Z,1011.31
2022-08-26T08:06:13.391Z,1011.29
2022-08-26T08:07:13.419Z,1011.33
2022-08-26T08:08:26.222Z,1011.29
2022-08-26T08:09:14.375Z,1011.34
2022-08-26T08:10:13.351Z,1011.32
2022-08-26T08:11:13.332Z,1011.35
2022-08-26T08:12:13.979Z,1011.33
2022-08-26T08:13:13.303Z,1011.32
2022-08-26T08:14:13.337Z,1011.36
2022-08-26T08:15:13.316Z,1011.36
2022-08-26T08:16:13.288Z,1011.36
2022-08-26T08:17:13.279Z,1011.32
2022-08-26T08:18:15.386Z,1011.38
2022-08-26T08:19:13.253Z,1011.34
2022-08-26T08:20:13.257Z,1011.34
2022-08-26T08:21:21.690Z,1011.35
2022-08-26T08:22:17.546Z,1011.35
2022-08-26T08:23:14.195Z,1011.36
2022-08-26T08:24:13.236Z,1011.41
2022-08-26T08:25:13.176Z,1011.36
2022-08-26T08:26:13.168Z,1011.39
2022-08-26T08:27:13.187Z,1011.36
2022-08-26T08:28:13.173Z,1011.38
2022-08-26T08:29:13.130Z,1011.37
2022-08-26T08:30:13.651Z,1011.35
2022-08-26T08:31:13.128Z,1011.35
2022-08-26T08:32:13.107Z,1011.38
2022-08-26T08:33:13.090Z,1011.41
2022-08-26T08:34:13.096Z,1011.42
2022-08-26T08:35:13.069Z,1011.39
2022-08-26T08:36:13.079Z,1011.44
2022-08-26T08:37:14.056Z,1011.41
2022-08-26T08:38:13.044Z,1011.44
2022-08-26T08:39:13.036Z,1011.42
2022-08-26T08:40:13.085Z,1011.42
2022-08-26T08:41:13.007Z,1011.41
2022-08-26T08:42:13.036Z,1011.44
2022-08-26T08:43:12.983Z,1011.44
2022-08-26T08:44:13.025Z,1011.42
2022-08-26T08:45:12.963Z,1011.45
2022-08-26T08:46:13.031Z,1011.41
2022-08-26T08:47:12.953Z,1011.45
2022-08-26T08:48:12.944Z,1011.43
2022-08-26T08:49:12.913Z,1011.49
2022-08-26T08:50:12.904Z,1011.51
2022-08-26T08:51:12.895Z,1011.44
2022-08-26T08:52:12.917Z,1011.49
2022-08-26T08:53:12.865Z,1011.52
2022-08-26T08:54:12.887Z,1011.51
2022-08-26T08:55:16.084Z,1011.52
2022-08-26T08:56:13.835Z,1011.52
2022-08-26T08:57:12.833Z,1011.51
2022-08-26T08:58:12.840Z,1011.50
2022-08-26T08:59:12.798Z,1011.49
2022-08-26T09:00:12.805Z,1011.48
2022-08-26T09:01:12.828Z,1011.46
2022-08-26T09:02:12.837Z,1011.47
2022-08-26T09:03:12.783Z,1011.52
2022-08-26T09:04:12.759Z,1011.50
2022-08-26T09:05:15.074Z,1011.54
2022-08-26T09:06:12.740Z,1011.50
2022-08-26T09:07:12.742Z,1011.50
2022-08-26T09:08:12.795Z,1011.53
2022-08-26T09:09:12.680Z,1011.54
2022-08-26T09:10:12.673Z,1011.54
2022-08-26T09:11:12.690Z,1011.56
2022-08-26T09:12:12.660Z,1011.61
2022-08-26T09:13:16.369Z,1011.57
2022-08-26T09:14:12.641Z,1011.57
2022-08-26T09:15:12.622Z,1011.61
2022-08-26T09:16:12.634Z,1011.56
2022-08-26T09:17:12.657Z,1011.55
2022-08-26T09:18:12.626Z,1011.56
2022-08-26T09:19:12.643Z,1011.57
2022-08-26T09:20:12.567Z,1011.58
2022-08-26T09:21:12.562Z,1011.49
2022-08-26T09:22:12.554Z,1011.54
2022-08-26T09:23:12.539Z,1011.55
2022-08-26T09:24:13.975Z,1011.53
2022-08-26T09:25:12.523Z,1011.55
2022-08-26T09:26:12.502Z,1011.57
2022-08-26T09:27:12.494Z,1011.60
2022-08-26T09:28:12.484Z,1011.59
2022-08-26T09:29:12.494Z,1011.53
2022-08-26T09:30:12.486Z,1011.60
2022-08-26T09:31:12.513Z,1011.60
2022-08-26T09:32:12.432Z,1011.56
2022-08-26T09:33:12.770Z,1011.62
2022-08-26T09:34:12.430Z,1011.63
2022-08-26T09:35:13.422Z,1011.60
2022-08-26T09:36:12.419Z,1011.65
2022-08-26T09:37:12.382Z,1011.65
2022-08-26T09:38:12.381Z,1011.66
2022-08-26T09:39:12.384Z,1011.62
2022-08-26T09:40:12.484Z,1011.64
2022-08-26T09:41:12.364Z,1011.63
2022-08-26T09:42:12.344Z,1011.61
2022-08-26T09:43:12.339Z,1011.62
2022-08-26T09:44:14.750Z,1011.60
2022-08-26T09:45:12.294Z,1011.61
2022-08-26T09:46:12.322Z,1011.58
2022-08-26T09:47:12.277Z,1011.59
2022-08-26T09:48:12.282Z,1011.64
2022-08-26T09:49:13.266Z,1011.64
2022-08-26T09:50:12.502Z,1011.60
2022-08-26T09:51:12.250Z,1011.63
2022-08-26T09:52:12.226Z,1011.60
2022-08-26T09:53:12.950Z,1011.54
2022-08-26T09:54:12.193Z,1011.59
2022-08-26T09:55:13.188Z,1011.60
2022-08-26T09:56:12.197Z,1011.62
2022-08-26T09:57:12.157Z,1011.58
2022-08-26T09:58:12.293Z,1011.66
2022-08-26T09:59:12.146Z,1011.67
2022-08-26T10:00:12.124Z,1011.68
2022-08-26T10:01:12.144Z,1011.62
2022-08-26T10:02:12.327Z,1011.64
2022-08-26T10:03:12.359Z,1011.66
2022-08-26T10:04:13.106Z,1011.61
2022-08-26T10:05:12.082Z,1011.61
2022-08-26T10:06:12.091Z,1011.64
2022-08-26T10:07:12.052Z,1011.65
2022-08-26T10:08:12.038Z,1011.63
2022-08-26T10:09:12.023Z,1011.61
2022-08-26T10:10:12.017Z,1011.60
2022-08-26T10:11:12.011Z,1011.60
2022-08-26T10:12:12.034Z,1011.57
2022-08-26T10:13:11.985Z,1011.58
2022-08-26T10:14:11.964Z,1011.57
2022-08-26T10:15:12.009Z,1011.57
2022-08-26T10:16:11.991Z,1011.58
2022-08-26T10:17:11.967Z,1011.53
2022-08-26T10:18:12.015Z,1011.56
2022-08-26T10:19:11.939Z,1011.54
2022-08-26T10:20:24.952Z,1011.53
2022-08-26T10:21:12.920Z,1011.53
2022-08-26T10:22:11.890Z,1011.51
2022-08-26T10:23:11.868Z,1011.53
2022-08-26T10:24:11.898Z,1011.55
2022-08-26T10:25:11.889Z,1011.52
2022-08-26T10:26:11.884Z,1011.48
2022-08-26T10:27:11.829Z,1011.51
2022-08-26T10:28:11.818Z,1011.50
2022-08-26T10:29:11.840Z,1011.52
2022-08-26T10:30:11.803Z,1011.48
2022-08-26T10:31:11.780Z,1011.47
2022-08-26T10:32:13.908Z,1011.49
2022-08-26T10:33:11.792Z,1011.45
2022-08-26T10:34:12.541Z,1011.43
2022-08-26T10:35:11.751Z,1011.51
2022-08-26T10:36:12.326Z,1011.48
2022-08-26T10:37:14.443Z,1011.45
2022-08-26T10:38:11.723Z,1011.43
2022-08-26T10:39:11.768Z,1011.48
2022-08-26T10:40:11.776Z,1011.51
2022-08-26T10:41:11.695Z,1011.47
2022-08-26T10:42:11.687Z,1011.48
2022-08-26T10:43:11.760Z,1011.43
2022-08-26T10:44:11.640Z,1011.44
2022-08-26T10:45:14.867Z,1011.45
2022-08-26T10:46:11.682Z,1011.45
2022-08-26T10:47:11.646Z,1011.43
2022-08-26T10:48:11.599Z,1011.44
2022-08-26T10:49:11.643Z,1011.49
2022-08-26T10:50:11.582Z,1011.49
2022-08-26T10:51:11.589Z,1011.43
2022-08-26T10:52:12.256Z,1011.45
2022-08-26T10:53:11.610Z,1011.44
2022-08-26T10:54:11.786Z,1011.36
2022-08-26T10:55:11.543Z,1011.38
2022-08-26T10:56:18.581Z,1011.38
2022-08-26T10:57:12.510Z,1011.43
2022-08-26T10:58:11.638Z,1011.43
2022-08-26T10:59:12.411Z,1011.45
2022-08-26T11:00:11.488Z,1011.44
2022-08-26T11:01:11.547Z,1011.40
2022-08-26T11:02:11.479Z,1011.41
2022-08-26T11:03:21.954Z,1011.46
2022-08-26T11:04:12.485Z,1011.38
2022-08-26T11:05:11.439Z,1011.43
2022-08-26T11:06:11.424Z,1011.42
2022-08-26T11:07:11.415Z,1011.39
2022-08-26T11:08:11.391Z,1011.41
2022-08-26T11:09:11.464Z,1011.43
2022-08-26T11:10:11.396Z,1011.40
2022-08-26T11:11:11.357Z,1011.40
2022-08-26T11:12:11.387Z,1011.43
2022-08-26T11:13:11.327Z,1011.42
2022-08-26T11:14:11.316Z,1011.40
2022-08-26T11:15:11.356Z,1011.41
2022-08-26T11:16:11.352Z,1011.43
2022-08-26T11:17:11.318Z,1011.40
2022-08-26T11:18:11.480Z,1011.42
2022-08-26T11:19:11.294Z,1011.38
2022-08-26T11:20:13.634Z,1011.41
2022-08-26T11:21:11.258Z,1011.40
2022-08-26T11:22:11.225Z,1011.40
2022-08-26T11:23:11.220Z,1011.41
2022-08-26T11:24:11.215Z,1011.40
2022-08-26T11:25:11.509Z,1011.44
2022-08-26T11:26:11.209Z,1011.40
2022-08-26T11:27:12.196Z,1011.46
2022-08-26T11:28:11.318Z,1011.41
2022-08-26T11:29:12.201Z,1011.39
2022-08-26T11:30:11.159Z,1011.42
2022-08-26T11:31:11.194Z,1011.45
2022-08-26T11:32:11.160Z,1011.41
2022-08-26T11:33:11.457Z,1011.36
2022-08-26T11:34:11.101Z,1011.36
2022-08-26T11:35:11.094Z,1011.36
2022-08-26T11:36:12.178Z,1011.35
2022-08-26T11:37:11.106Z,1011.37
2022-08-26T11:38:11.085Z,1011.32
2022-08-26T11:39:11.055Z,1011.31
2022-08-26T11:40:11.075Z,1011.32
2022-08-26T11:41:11.045Z,1011.34
2022-08-26T11:42:11.007Z,1011.30
2022-08-26T11:43:11.021Z,1011.35
2022-08-26T11:44:11.027Z,1011.35
2022-08-26T11:45:10.980Z,1011.30
2022-08-26T11:46:11.073Z,1011.34
2022-08-26T11:47:11.419Z,1011.29
2022-08-26T11:48:10.955Z,1011.27
2022-08-26T11:49:10.937Z,1011.28
2022-08-26T11:50:10.930Z,1011.26
2022-08-26T11:51:10.942Z,1011.29
2022-08-26T11:52:10.908Z,1011.25
2022-08-26T11:53:10.932Z,1011.24
2022-08-26T11:54:10.921Z,1011.26
2022-08-26T11:55:10.899Z,1011.25
2022-08-26T11:56:10.921Z,1011.26
2022-08-26T11:57:11.951Z,1011.23
2022-08-26T11:58:10.915Z,1011.21
2022-08-26T11:59:10.825Z,1011.29
2022-08-26T12:00:13.544Z,1011.20
2022-08-26T12:01:11.542Z,1011.23
2022-08-26T12:02:10.835Z,1011.25
2022-08-26T12:03:11.047Z,1011.24
2022-08-26T12:04:10.937Z,1011.18
2022-08-26T12:05:10.778Z,1011.26